Time;durP1;ratioP1;P1;durP2;ratioP2;P2;SDS_P1;SDS_P2;PMS_P1;PMS_P2;Temp;Humidity;BMP_temperature;BMP_pressure;BME280_temperature;BME280_humidity;BME280_pressure;Samples;Min_cycle;Max_cycle;Signal;HPM_P1;HPM_P2
2021/06/05 00:00:29;;;;;;;725.20;666.77;;;;;;;15.96;100.00;101941.41;5136840;27;20685;-79
2021/06/05 00:02:55;;;;;;;350.23;325.13;;;;;;;15.98;100.00;101946.59;5152433;27;20237;-77
2021/06/05 00:05:23;;;;;;;711.93;661.53;;;;;;;15.98;100.00;101947.44;5146109;27;20407;-80
2021/06/05 00:07:49;;;;;;;530.70;492.47;;;;;;;16.02;100.00;101940.09;5134783;27;20503;-80
2021/06/05 00:10:23;;;;;;;423.57;393.53;;;;;;;16.04;100.00;101944.38;5152177;27;20917;-80
2021/06/05 00:12:49;;;;;;;339.40;315.73;;;;;;;16.06;100.00;101931.00;5142439;27;20920;-79
2021/06/05 00:15:22;;;;;;;563.90;524.43;;;;;;;16.08;100.00;101935.22;5147003;27;20404;-79
2021/06/05 00:17:47;;;;;;;556.87;516.07;;;;;;;16.08;100.00;101934.38;5137093;27;20472;-81
2021/06/05 00:20:13;;;;;;;307.47;285.47;;;;;;;16.15;100.00;101932.16;5133260;27;20392;-77
2021/06/05 00:22:39;;;;;;;331.70;305.93;;;;;;;16.11;100.00;101933.34;5132938;27;20210;-75
2021/06/05 00:25:08;;;;;;;569.57;527.40;;;;;;;16.06;100.00;101934.50;5136831;27;20468;-77
2021/06/05 00:27:34;;;;;;;553.80;514.73;;;;;;;16.09;100.00;101930.78;5131553;27;20181;-78
2021/06/05 00:30:01;;;;;;;518.93;482.87;;;;;;;16.10;100.00;101921.88;5153393;27;20414;-79
2021/06/05 00:32:26;;;;;;;661.10;613.70;;;;;;;16.07;100.00;101922.09;5141221;27;20466;-74
2021/06/05 00:34:52;;;;;;;563.17;521.23;;;;;;;16.14;100.00;101922.50;5134612;27;20466;-77
2021/06/05 00:37:17;;;;;;;732.77;677.70;;;;;;;16.14;100.00;101918.03;5153649;27;20166;-80
2021/06/05 00:39:43;;;;;;;756.50;698.87;;;;;;;16.12;100.00;101919.97;5144750;27;20624;-80
2021/06/05 00:42:09;;;;;;;416.40;386.93;;;;;;;16.12;100.00;101917.31;5097436;27;20174;-78
2021/06/05 00:44:34;;;;;;;619.90;576.43;;;;;;;16.02;100.00;101916.25;5136555;27;20153;-78
2021/06/05 00:47:00;;;;;;;756.20;702.37;;;;;;;16.02;100.00;101916.25;5117095;27;20193;-77
2021/06/05 00:49:25;;;;;;;682.67;624.53;;;;;;;15.91;100.00;101919.66;5133103;27;20213;-69
2021/06/05 00:51:53;;;;;;;756.87;701.67;;;;;;;15.91;100.00;101919.66;5153275;27;20224;-75
2021/06/05 00:54:21;;;;;;;722.33;670.77;;;;;;;15.84;100.00;101914.91;5148928;27;20193;-76
2021/06/05 00:56:54;;;;;;;718.23;667.83;;;;;;;15.77;100.00;101912.69;5137766;27;20435;-77
2021/06/05 00:59:20;;;;;;;397.87;370.00;;;;;;;15.77;100.00;101917.13;5132590;27;20431;-77
2021/06/05 01:01:46;;;;;;;447.83;416.00;;;;;;;15.69;100.00;101919.47;5132436;27;20482;-75
2021/06/05 01:04:12;;;;;;;473.23;439.93;;;;;;;15.62;100.00;101916.41;5138041;27;20749;-77
2021/06/05 01:07:17;;;;;;;774.80;720.03;;;;;;;15.64;100.00;101910.97;5145882;27;20495;-69
2021/06/05 01:09:59;;;;;;;350.23;325.67;;;;;;;15.57;100.00;101897.31;5134893;27;20188;-78
2021/06/05 01:12:52;;;;;;;394.63;366.30;;;;;;;15.51;100.00;101908.31;5134437;27;20906;-77
2021/06/05 01:15:39;;;;;;;587.33;546.13;;;;;;;15.46;100.00;101905.97;5147711;27;20439;-78
2021/06/05 01:18:14;;;;;;;368.97;343.07;;;;;;;15.41;100.00;101909.88;5132343;27;20439;-72
2021/06/05 01:20:52;;;;;;;439.47;408.60;;;;;;;15.43;100.00;101908.84;5133547;27;20419;-80
2021/06/05 01:23:29;;;;;;;401.53;373.77;;;;;;;15.37;100.00;101913.72;5141880;27;20407;-77
2021/06/05 01:26:06;;;;;;;658.03;612.53;;;;;;;15.34;100.00;101913.91;5142974;27;20404;-78
2021/06/05 01:28:47;;;;;;;491.73;458.53;;;;;;;15.36;100.00;101915.50;5136644;27;20408;-67
2021/06/05 01:31:18;;;;;;;386.17;358.00;;;;;;;15.38;100.00;101910.94;5149296;27;20486;-72
2021/06/05 01:33:45;;;;;;;558.07;518.77;;;;;;;15.37;100.00;101913.72;5147057;27;20423;-76
2021/06/05 01:36:13;;;;;;;484.40;451.17;;;;;;;15.34;100.00;101914.78;5132143;27;20841;-67
2021/06/05 01:38:43;;;;;;;485.20;451.83;;;;;;;15.35;100.00;101915.63;5148352;27;20404;-77
2021/06/05 01:41:11;;;;;;;530.73;493.83;;;;;;;15.26;100.00;101906.47;5132137;28;20449;-78
2021/06/05 01:43:37;;;;;;;682.03;621.13;;;;;;;15.22;100.00;101919.09;5149866;27;20403;-78
2021/06/05 01:46:05;;;;;;;653.90;608.77;;;;;;;15.26;100.00;101915.31;5151663;27;20407;-67
2021/06/05 01:48:30;;;;;;;493.13;458.80;;;;;;;15.23;100.00;101915.47;5132188;27;20477;-77
2021/06/05 01:51:00;;;;;;;675.03;627.83;;;;;;;15.16;100.00;101916.84;5146259;27;20542;-77
2021/06/05 01:53:32;;;;;;;875.70;805.43;;;;;;;15.12;100.00;101911.88;5138687;27;20201;-77
2021/06/05 01:56:20;;;;;;;468.07;435.10;;;;;;;15.17;100.00;101910.59;5133137;27;20427;-76
2021/06/05 01:58:48;;;;;;;537.00;498.40;;;;;;;15.14;100.00;101912.63;5144645;27;20419;-79
2021/06/05 02:01:14;;;;;;;317.43;294.23;;;;;;;15.12;100.00;101915.38;5152446;27;20399;-67
2021/06/05 02:03:40;;;;;;;560.57;520.67;;;;;;;15.08;100.00;101916.50;5139437;27;20405;-79
2021/06/05 02:06:06;;;;;;;606.00;563.23;;;;;;;15.07;100.00;101917.47;5152506;27;20158;-78
2021/06/05 02:08:32;;;;;;;445.17;413.03;;;;;;;15.05;100.00;101916.72;5145947;27;20411;-75
2021/06/05 02:11:20;;;;;;;599.63;557.83;;;;;;;14.99;100.00;101912.69;5146305;27;20591;-77
2021/06/05 02:14:08;;;;;;;599.60;557.47;;;;;;;15.02;100.00;101910.78;5132527;27;20426;-72
2021/06/05 02:16:42;;;;;;;668.77;621.70;;;;;;;14.99;100.00;101904.75;5154276;27;20386;-76
2021/06/05 02:19:17;;;;;;;268.27;247.93;;;;;;;14.96;100.00;101907.59;5156636;27;20385;-78
2021/06/05 02:21:44;;;;;;;674.43;627.70;;;;;;;14.92;100.00;101915.84;5146368;27;21011;-77
2021/06/05 02:24:22;;;;;;;618.53;575.27;;;;;;;14.90;100.00;101912.47;5138014;27;20412;-74
2021/06/05 02:26:49;;;;;;;548.53;510.50;;;;;;;14.89;100.00;101916.06;5147407;27;22329;-79
2021/06/05 02:29:25;;;;;;;392.90;363.87;;;;;;;14.86;100.00;101910.94;5117040;27;20967;-72
2021/06/05 02:31:52;;;;;;;399.00;370.47;;;;;;;14.81;100.00;101911.28;5135431;27;21030;-75
2021/06/05 02:34:22;;;;;;;293.93;271.50;;;;;;;14.80;100.00;101906.06;5148816;27;20414;-76
2021/06/05 02:36:51;;;;;;;361.33;334.83;;;;;;;14.75;100.00;101910.81;5143498;27;20404;-78
2021/06/05 02:39:18;;;;;;;536.37;496.83;;;;;;;14.76;100.00;101907.22;5118619;27;20419;-78
2021/06/05 02:41:47;;;;;;;483.93;450.07;;;;;;;14.74;100.00;101903.84;5135365;27;21008;-75
2021/06/05 02:44:19;;;;;;;501.10;464.77;;;;;;;14.73;100.00;101904.75;5135454;27;20403;-76
2021/06/05 02:46:45;;;;;;;564.03;522.87;;;;;;;14.66;100.00;101901.66;5135452;27;20834;-77
2021/06/05 02:49:20;;;;;;;626.23;581.40;;;;;;;14.69;100.00;101902.31;5141818;27;21053;-78
2021/06/05 02:51:50;;;;;;;879.20;741.33;;;;;;;14.75;100.00;101900.25;5142055;27;20447;-80
2021/06/05 02:54:17;;;;;;;351.30;323.80;;;;;;;14.68;100.00;101911.22;5147301;27;20924;-70
2021/06/05 02:56:43;;;;;;;521.43;483.43;;;;;;;14.66;100.00;101906.94;5155436;27;20398;-73
2021/06/05 02:59:08;;;;;;;427.90;397.20;;;;;;;14.65;100.00;101911.41;5154874;27;20818;-76
2021/06/05 03:01:34;;;;;;;587.73;450.93;;;;;;;14.65;100.00;101905.25;5144581;27;20154;-74
2021/06/05 03:04:01;;;;;;;657.83;610.83;;;;;;;14.61;100.00;101917.00;5144696;27;20288;-75
2021/06/05 03:06:30;;;;;;;324.77;300.50;;;;;;;14.66;100.00;101909.59;5135705;27;20411;-76
2021/06/05 03:08:58;;;;;;;559.90;518.47;;;;;;;14.62;100.00;101903.66;5134631;27;20416;-74
2021/06/05 03:11:25;;;;;;;508.20;468.63;;;;;;;14.62;100.00;101905.47;5134682;27;20446;-72
2021/06/05 03:13:51;;;;;;;451.73;414.43;;;;;;;14.67;100.00;101909.53;5138678;27;20408;-71
2021/06/05 03:16:18;;;;;;;531.37;490.77;;;;;;;14.57;100.00;101911.03;5147422;27;20769;-74
2021/06/05 03:18:44;;;;;;;444.47;410.13;;;;;;;14.57;100.00;101913.69;5152476;27;20161;-78
2021/06/05 03:21:16;;;;;;;511.80;469.80;;;;;;;14.58;100.00;101918.03;5145502;27;20479;-78
2021/06/05 03:23:41;;;;;;;435.60;391.70;;;;;;;14.61;100.00;101922.28;5145944;27;20435;-78
2021/06/05 03:26:07;;;;;;;554.53;510.80;;;;;;;14.57;100.00;101924.28;5150475;27;20588;-77
2021/06/05 03:28:34;;;;;;;640.67;593.40;;;;;;;14.55;100.00;101920.03;5153874;27;20409;-77
2021/06/05 03:31:01;;;;;;;447.67;414.43;;;;;;;14.56;100.00;101925.22;5148490;27;20190;-78
2021/06/05 03:33:27;;;;;;;472.53;437.27;;;;;;;14.54;100.00;101924.47;5152644;27;20407;-75
2021/06/05 03:35:54;;;;;;;706.53;632.33;;;;;;;14.58;100.00;101922.47;5149676;27;20421;-77
2021/06/05 03:38:21;;;;;;;741.13;680.03;;;;;;;14.67;100.00;101919.25;5149527;27;20171;-77
2021/06/05 03:40:47;;;;;;;450.97;409.80;;;;;;;14.69;100.00;101920.84;5143123;27;20924;-78
2021/06/05 03:43:13;;;;;;;602.77;558.13;;;;;;;14.69;100.00;101912.91;5154528;27;20412;-77
2021/06/05 03:45:40;;;;;;;568.57;526.80;;;;;;;14.75;100.00;101921.41;5138170;27;20399;-77
2021/06/05 03:48:05;;;;;;;500.10;458.67;;;;;;;14.80;100.00;101919.28;5136634;27;20590;-78
2021/06/05 03:50:36;;;;;;;515.03;476.33;;;;;;;14.87;100.00;101915.28;5152853;27;20916;-79
2021/06/05 03:53:02;;;;;;;757.97;700.77;;;;;;;14.85;100.00;101919.84;5154358;27;20245;-80
2021/06/05 03:55:27;;;;;;;804.00;729.57;;;;;;;14.93;100.00;101920.19;5138364;27;20404;-79
2021/06/05 03:57:53;;;;;;;591.10;543.73;;;;;;;15.02;100.00;101921.38;5139316;27;20850;-77
2021/06/05 04:00:24;;;;;;;616.23;567.73;;;;;;;15.08;100.00;101924.47;5153166;27;20205;-77
2021/06/05 04:02:49;;;;;;;894.13;824.50;;;;;;;15.16;100.00;101916.84;5143380;27;20594;-79
2021/06/05 04:05:16;;;;;;;747.97;688.77;;;;;;;15.18;100.00;101917.59;5135164;27;20454;-78
2021/06/05 04:07:42;;;;;;;744.97;676.70;;;;;;;15.25;100.00;101921.53;5149709;27;20263;-78
2021/06/05 04:10:09;;;;;;;800.50;717.87;;;;;;;15.35;100.00;101913.81;5135257;27;20408;-78
2021/06/05 04:12:35;;;;;;;542.07;500.90;;;;;;;15.44;100.00;101909.69;5133107;27;20331;-77
2021/06/05 04:15:01;;;;;;;769.03;705.33;;;;;;;15.46;100.00;101905.97;5133532;27;20412;-78
2021/06/05 04:17:26;;;;;;;1028.63;939.13;;;;;;;15.54;100.00;101902.81;5150984;27;20770;-78
2021/06/05 04:19:52;;;;;;;866.17;792.27;;;;;;;15.64;100.00;101903.91;5153620;27;20257;-77
2021/06/05 04:22:17;;;;;;;742.00;678.13;;;;;;;15.70;100.00;101908.75;5154185;27;20160;-80
2021/06/05 04:24:43;;;;;;;985.57;901.43;;;;;;;15.80;100.00;101901.88;5140405;27;20512;-76
2021/06/05 04:27:09;;;;;;;987.17;904.23;;;;;;;15.89;100.00;101895.09;5136283;27;20181;-76
2021/06/05 04:29:35;;;;;;;536.60;495.23;;;;;;;16.02;100.00;101892.38;5145522;27;20941;-72
2021/06/05 04:32:01;;;;;;;926.07;846.13;;;;;;;16.11;100.00;101886.47;5137585;27;20447;-77
2021/06/05 04:34:27;;;;;;;858.70;792.83;;;;;;;16.18;100.00;101897.47;5144990;27;20423;-76
2021/06/05 04:36:53;;;;;;;979.73;896.27;;;;;;;16.32;100.00;101892.00;5145052;27;20635;-76
2021/06/05 04:39:19;;;;;;;758.97;696.47;;;;;;;16.41;100.00;101890.50;5142614;27;20165;-73
2021/06/05 04:41:45;;;;;;;997.37;914.20;;;;;;;16.42;100.00;101895.69;5132820;27;20882;-76
2021/06/05 04:44:11;;;;;;;1015.93;934.00;;;;;;;16.53;100.00;101889.59;5148069;27;20735;-77
2021/06/05 04:46:37;;;;;;;781.80;723.63;;;;;;;16.60;100.00;101891.69;5138610;27;20154;-73
2021/06/05 04:49:03;;;;;;;1030.33;945.60;;;;;;;16.70;100.00;101889.25;5134745;27;20454;-75
2021/06/05 04:51:30;;;;;;;912.33;838.83;;;;;;;16.79;100.00;101882.41;5153163;27;20189;-78
2021/06/05 04:53:56;;;;;;;860.53;792.87;;;;;;;16.88;100.00;101882.56;5153353;27;20445;-74
2021/06/05 04:56:50;;;;;;;962.47;880.87;;;;;;;17.04;100.00;101889.38;5151753;27;20467;-69
2021/06/05 04:59:18;;;;;;;486.87;451.30;;;;;;;17.13;100.00;101883.34;5128474;27;20825;-72
2021/06/05 05:01:44;;;;;;;931.30;853.10;;;;;;;17.20;100.00;101885.41;5147809;27;20403;-76
2021/06/05 05:04:10;;;;;;;500.87;448.53;;;;;;;17.33;100.00;101879.19;5153121;27;20856;-73
2021/06/05 05:06:36;;;;;;;898.57;822.43;;;;;;;17.41;100.00;101882.94;5153159;27;20391;-75
2021/06/05 05:09:04;;;;;;;804.97;744.10;;;;;;;17.51;100.00;101885.72;5153103;27;20168;-77
2021/06/05 05:11:30;;;;;;;676.83;619.03;;;;;;;17.57;100.00;101887.06;5145716;27;20557;-78
2021/06/05 05:13:55;;;;;;;689.77;638.13;;;;;;;17.60;100.00;101884.16;5152775;27;20821;-77
2021/06/05 05:16:21;;;;;;;733.53;676.10;;;;;;;17.67;100.00;101882.69;5152346;27;20177;-78
2021/06/05 05:18:48;;;;;;;872.13;795.70;;;;;;;17.74;100.00;101879.47;5138367;27;20229;-71
2021/06/05 05:21:18;;;;;;;1042.47;947.27;;;;;;;17.86;100.00;101883.00;5142472;27;20407;-76
2021/06/05 05:23:44;;;;;;;690.17;629.10;;;;;;;17.90;100.00;101881.75;5138742;27;20499;-77
2021/06/05 05:26:11;;;;;;;436.83;399.80;;;;;;;18.02;100.00;101879.97;5148609;27;20513;-77
2021/06/05 05:28:37;;;;;;;729.50;672.50;;;;;;;18.07;100.00;101882.25;5152503;27;20898;-75
2021/06/05 05:31:07;;;;;;;935.80;850.20;;;;;;;18.07;100.00;101876.94;5145541;27;20478;-72
2021/06/05 05:33:37;;;;;;;834.93;766.37;;;;;;;18.19;100.00;101875.94;5152617;27;20992;-67
2021/06/05 05:36:06;;;;;;;1020.77;932.40;;;;;;;18.28;100.00;101877.84;5139657;27;20426;-73
2021/06/05 05:38:32;;;;;;;745.57;687.80;;;;;;;18.33;100.00;101881.00;5130221;27;20411;-74
2021/06/05 05:40:57;;;;;;;835.17;763.73;;;;;;;18.41;100.00;101880.38;5133235;27;20419;-75
2021/06/05 05:43:23;;;;;;;819.17;750.33;;;;;;;18.50;100.00;101877.78;5152187;27;20190;-76
2021/06/05 05:45:49;;;;;;;850.33;777.90;;;;;;;18.61;100.00;101873.41;5152003;27;20178;-71
2021/06/05 05:48:15;;;;;;;885.83;806.73;;;;;;;18.68;100.00;101875.47;5152696;27;20507;-75
2021/06/05 05:50:43;;;;;;;940.53;858.33;;;;;;;18.85;100.00;101866.91;5138757;27;20593;-75
2021/06/05 05:53:09;;;;;;;696.17;642.77;;;;;;;18.88;100.00;101863.16;5143135;27;20455;-75
2021/06/05 05:55:35;;;;;;;840.90;770.37;;;;;;;18.92;100.00;101869.06;5144776;27;20741;-74
2021/06/05 05:58:11;;;;;;;842.90;774.03;;;;;;;18.99;100.00;101865.78;5155776;27;20166;-71
2021/06/05 06:00:39;;;;;;;841.33;770.13;;;;;;;19.06;100.00;101874.09;5155064;27;20154;-73
2021/06/05 06:03:05;;;;;;;753.37;682.07;;;;;;;19.18;100.00;101866.84;5156154;27;20431;-73
2021/06/05 06:05:32;;;;;;;553.90;501.07;;;;;;;19.29;100.00;101870.31;5156118;27;20407;-72
2021/06/05 06:07:58;;;;;;;795.37;731.53;;;;;;;19.35;100.00;101874.28;5156413;27;20464;-75
2021/06/05 06:10:24;;;;;;;826.87;761.47;;;;;;;19.47;100.00;101872.38;5156158;27;20391;-71
2021/06/05 06:12:50;;;;;;;492.50;452.60;;;;;;;19.58;100.00;101869.66;5155979;27;20193;-81
2021/06/05 06:15:19;;;;;;;808.20;740.53;;;;;;;19.72;100.00;101865.78;5155070;27;20984;-80
2021/06/05 06:17:45;;;;;;;696.60;640.97;;;;;;;19.74;100.00;101861.16;5154785;27;20486;-75
2021/06/05 06:20:25;;;;;;;749.10;689.43;;;;;;;19.83;100.00;101863.88;5153935;27;20411;-80
2021/06/05 06:22:51;;;;;;;739.60;675.87;;;;;;;19.89;100.00;101860.66;5153992;27;20485;-71
2021/06/05 06:25:20;;;;;;;761.73;700.13;;;;;;;20.07;100.00;101865.34;5154638;27;20900;-80
2021/06/05 06:27:47;;;;;;;703.60;646.90;;;;;;;20.08;100.00;101869.69;5154751;27;20935;-77
2021/06/05 06:30:20;;;;;;;461.80;424.03;;;;;;;20.11;100.00;101870.28;5154655;27;20407;-76
2021/06/05 06:32:51;;;;;;;658.40;607.83;;;;;;;20.08;100.00;101859.00;5152884;27;20453;-79
2021/06/05 06:35:18;;;;;;;726.43;671.20;;;;;;;20.15;100.00;101854.81;5137113;27;20463;-74
2021/06/05 06:37:44;;;;;;;679.63;628.17;;;;;;;20.21;100.00;101852.44;5154671;27;20470;-71
2021/06/05 06:40:10;;;;;;;691.33;638.07;;;;;;;20.28;100.00;101851.91;5154635;27;20823;-67
2021/06/05 06:42:36;;;;;;;606.33;556.13;;;;;;;20.41;100.00;101857.84;5154387;27;20162;-70
2021/06/05 06:45:02;;;;;;;581.37;531.60;;;;;;;20.41;100.00;101850.66;5154780;27;20407;-71
2021/06/05 06:47:28;;;;;;;459.43;423.47;;;;;;;20.51;100.00;101842.69;5155454;27;20213;-79
2021/06/05 06:49:53;;;;;;;670.20;616.17;;;;;;;20.50;100.00;101841.84;5155504;27;20522;-71
2021/06/05 06:52:24;;;;;;;697.80;642.90;;;;;;;20.64;100.00;101829.91;5155507;27;20659;-82
2021/06/05 06:54:51;;;;;;;689.33;633.43;;;;;;;20.83;100.00;101828.19;5154867;27;20197;-75
2021/06/05 06:57:17;;;;;;;799.07;736.23;;;;;;;20.98;100.00;101835.63;5155028;27;20440;-82
2021/06/05 06:59:42;;;;;;;553.97;508.07;;;;;;;21.09;100.00;101826.59;5155120;27;20407;-79
2021/06/05 07:02:08;;;;;;;526.73;486.43;;;;;;;21.10;100.00;101822.09;5138256;27;20572;-79
2021/06/05 07:04:33;;;;;;;565.63;522.17;;;;;;;21.12;100.00;101820.97;5133775;27;20167;-76
2021/06/05 07:06:59;;;;;;;447.57;413.33;;;;;;;21.14;100.00;101827.00;5134485;27;20245;-77
2021/06/05 07:09:24;;;;;;;548.40;506.23;;;;;;;21.16;100.00;101826.84;5134398;27;20170;-81
2021/06/05 07:11:51;;;;;;;669.70;613.40;;;;;;;21.26;100.00;101827.69;5133680;27;20206;-81
2021/06/05 07:14:17;;;;;;;477.83;439.87;;;;;;;21.45;100.00;101826.78;5136392;27;20274;-81
2021/06/05 07:16:42;;;;;;;544.60;503.17;;;;;;;21.59;100.00;101820.97;5152788;27;20455;-81
2021/06/05 07:19:08;;;;;;;555.13;515.10;;;;;;;21.63;100.00;101818.84;5155253;27;20253;-82
2021/06/05 07:21:34;;;;;;;432.73;399.90;;;;;;;21.65;100.00;101820.38;5154878;27;20150;-80
2021/06/05 07:24:00;;;;;;;475.77;440.93;;;;;;;21.71;100.00;101811.78;5154950;27;20399;-80
2021/06/05 07:26:28;;;;;;;488.47;454.13;;;;;;;21.89;100.00;101818.00;5154744;27;20498;-82
2021/06/05 07:28:58;;;;;;;447.17;414.47;;;;;;;21.97;100.00;101811.88;5154826;27;20265;-68
2021/06/05 07:31:31;;;;;;;359.63;333.67;;;;;;;22.12;100.00;101814.94;5152769;27;20453;-80
2021/06/05 07:33:57;;;;;;;439.53;407.37;;;;;;;22.28;100.00;101807.06;5154945;27;20402;-83
2021/06/05 07:36:29;;;;;;;519.13;482.80;;;;;;;22.43;100.00;101810.03;5147074;27;20408;-81
2021/06/05 07:38:54;;;;;;;407.33;377.43;;;;;;;22.60;100.00;101803.00;5133969;27;20427;-80
2021/06/05 07:41:20;;;;;;;367.80;340.87;;;;;;;22.76;100.00;101797.78;5133914;27;20472;-70
2021/06/05 07:43:46;;;;;;;249.53;230.30;;;;;;;22.92;100.00;101805.97;5140556;27;20591;-75
2021/06/05 07:46:12;;;;;;;265.57;244.67;;;;;;;22.90;100.00;101799.09;5151555;27;20170;-83
2021/06/05 07:48:38;;;;;;;229.00;210.93;;;;;;;23.04;100.00;101801.16;5153538;27;21033;-83
2021/06/05 07:51:05;;;;;;;263.40;243.17;;;;;;;23.07;100.00;101792.00;5154274;27;20213;-75
2021/06/05 07:53:31;;;;;;;187.43;171.77;;;;;;;23.13;100.00;101788.69;5135808;27;20729;-79
2021/06/05 07:55:57;;;;;;;151.63;137.73;;;;;;;23.29;100.00;101788.75;5154437;27;20427;-82
2021/06/05 07:58:23;;;;;;;125.50;112.93;;;;;;;23.31;100.00;101792.13;5154339;27;20789;-74
2021/06/05 08:00:48;;;;;;;206.40;190.50;;;;;;;23.29;100.00;101794.13;5153998;27;20395;-81
2021/06/05 08:03:14;;;;;;;81.70;72.93;;;;;;;23.37;100.00;101783.44;5154371;27;20150;-80
2021/06/05 08:05:41;;;;;;;44.43;18.67;;;;;;;23.45;100.00;101779.94;5155208;27;20146;-77
2021/06/05 08:08:09;;;;;;;40.40;22.33;;;;;;;23.52;100.00;101776.47;5140378;27;20782;-76
2021/06/05 08:10:36;;;;;;;28.63;9.83;;;;;;;23.70;99.37;101779.06;5153000;27;20429;-80
2021/06/05 08:13:02;;;;;;;77.43;70.80;;;;;;;23.84;91.29;101777.59;5153983;27;20453;-81
2021/06/05 08:15:34;;;;;;;28.10;8.57;;;;;;;23.99;93.07;101773.28;5145101;27;20408;-80
2021/06/05 08:17:59;;;;;;;23.00;6.93;;;;;;;24.25;92.71;101758.84;5132527;27;20174;-79
2021/06/05 08:20:31;;;;;;;23.30;6.67;;;;;;;24.32;93.54;101754.50;5145718;27;20492;-87
2021/06/05 08:22:57;;;;;;;20.87;5.40;;;;;;;24.15;92.25;101763.56;5136578;27;20579;-77
2021/06/05 08:25:24;;;;;;;32.20;19.60;;;;;;;24.15;93.09;101752.81;5132434;27;20464;-69
2021/06/05 08:27:52;;;;;;;18.33;5.43;;;;;;;24.21;90.96;101754.84;5133225;27;20392;-82
2021/06/05 08:30:23;;;;;;;28.70;7.83;;;;;;;24.26;94.31;101753.34;5149401;27;20435;-83
2021/06/05 08:32:48;;;;;;;20.83;5.70;;;;;;;24.20;93.27;101763.91;5153964;27;20971;-87
2021/06/05 08:35:14;;;;;;;20.40;5.70;;;;;;;24.52;92.04;101750.50;5151884;27;20411;-76
2021/06/05 08:37:40;;;;;;;21.60;6.13;;;;;;;24.88;92.18;101745.59;5142150;27;20154;-80
2021/06/05 08:40:09;;;;;;;45.20;34.10;;;;;;;24.83;87.67;101749.78;5153445;27;20435;-73
2021/06/05 08:42:46;;;;;;;20.60;6.40;;;;;;;24.55;92.31;101752.00;5153555;27;20436;-80
2021/06/05 08:45:13;;;;;;;20.23;6.13;;;;;;;24.45;94.67;101754.88;5152488;27;20501;-70
2021/06/05 08:47:39;;;;;;;22.10;6.70;;;;;;;24.35;92.90;101755.06;5152894;27;20451;-68
2021/06/05 08:50:23;;;;;;;23.73;4.67;;;;;;;24.42;92.86;101746.31;5153316;27;20392;-83
2021/06/05 08:53:12;;;;;;;19.77;6.03;;;;;;;24.82;93.04;101745.44;5147769;27;20725;-71
2021/06/05 08:55:54;;;;;;;24.33;6.03;;;;;;;25.36;88.18;101735.69;5151546;27;20417;-82
2021/06/05 08:58:36;;;;;;;17.33;4.60;;;;;;;25.46;81.96;101735.47;5153095;27;20471;-79
2021/06/05 09:01:22;;;;;;;16.30;6.67;;;;;;;25.49;79.55;101724.38;5138092;27;20419;-75
2021/06/05 09:03:55;;;;;;;26.73;18.43;;;;;;;25.22;78.82;101722.97;5133147;27;20416;-83
2021/06/05 09:06:45;;;;;;;18.80;4.90;;;;;;;25.57;77.33;101727.03;5150006;27;20415;-80
2021/06/05 09:09:16;;;;;;;17.40;4.43;;;;;;;25.69;77.26;101722.94;5148940;27;20491;-79
2021/06/05 09:11:41;;;;;;;15.23;3.70;;;;;;;25.83;72.90;101717.81;5152173;27;20478;-76
2021/06/05 09:14:07;;;;;;;14.00;4.10;;;;;;;25.84;74.52;101724.88;5152655;27;20847;-78
2021/06/05 09:16:36;;;;;;;12.67;3.80;;;;;;;25.65;72.92;101731.53;5152328;27;20162;-77
2021/06/05 09:19:28;;;;;;;13.00;3.47;;;;;;;25.40;74.33;101731.66;5151890;27;20252;-65
2021/06/05 09:22:16;;;;;;;16.50;3.70;;;;;;;25.27;78.90;101727.84;5144678;27;20783;-77
2021/06/05 09:24:44;;;;;;;14.53;4.50;;;;;;;25.24;81.54;101729.03;5133769;27;20963;-80
2021/06/05 09:27:18;;;;;;;15.50;4.73;;;;;;;25.41;90.09;101737.88;5151252;27;20901;-78
2021/06/05 09:29:49;;;;;;;21.63;8.50;;;;;;;25.71;100.00;101728.13;5152366;27;20933;-65
2021/06/05 09:32:30;;;;;;;24.40;9.73;;;;;;;25.50;100.00;101723.34;5151002;27;20511;-75
2021/06/05 09:35:05;;;;;;;29.20;13.50;;;;;;;25.34;100.00;101726.97;5151392;27;20446;-68
2021/06/05 09:37:35;;;;;;;29.87;13.47;;;;;;;25.26;100.00;101727.00;5151517;27;20410;-77
2021/06/05 09:40:19;;;;;;;30.60;14.93;;;;;;;25.26;100.00;101726.16;5151085;27;20452;-66
2021/06/05 09:42:49;;;;;;;33.00;18.07;;;;;;;25.24;100.00;101725.47;5151352;27;20395;-66
2021/06/05 09:45:26;;;;;;;30.17;16.43;;;;;;;25.22;100.00;101722.97;5151438;27;20383;-76
2021/06/05 09:48:12;;;;;;;32.53;14.70;;;;;;;24.97;100.00;101724.06;5151810;27;20899;-74
2021/06/05 09:50:43;;;;;;;36.20;16.50;;;;;;;24.91;100.00;101728.25;5149535;27;20433;-76
2021/06/05 09:53:30;;;;;;;37.73;23.63;;;;;;;25.06;100.00;101713.13;5123619;27;20849;-80
2021/06/05 09:56:00;;;;;;;34.23;18.43;;;;;;;25.02;100.00;101719.00;5144825;27;20395;-79
2021/06/05 09:58:42;;;;;;;36.87;19.13;;;;;;;24.87;100.00;101721.56;5148287;27;20407;-85
2021/06/05 10:01:24;;;;;;;34.83;19.00;;;;;;;24.66;100.00;101730.16;5150883;27;20840;-81
2021/06/05 10:04:13;;;;;;;38.00;23.77;;;;;;;24.86;100.00;101725.25;5149319;27;20415;-79
2021/06/05 10:06:44;;;;;;;35.93;20.50;;;;;;;25.37;100.00;101715.84;5151454;27;20466;-78
2021/06/05 10:09:24;;;;;;;34.90;19.60;;;;;;;25.39;100.00;101710.28;5138312;27;20445;-76
2021/06/05 10:11:57;;;;;;;33.63;17.10;;;;;;;25.65;100.00;101710.00;5140022;27;20443;-74
2021/06/05 10:14:51;;;;;;;32.57;19.80;;;;;;;25.63;100.00;101699.41;5138473;27;20404;-78
2021/06/05 10:17:42;;;;;;;30.80;15.77;;;;;;;25.36;100.00;101698.03;5151281;27;20430;-76
2021/06/05 10:20:16;;;;;;;31.73;13.20;;;;;;;25.40;100.00;101703.91;5150680;27;20395;-84
2021/06/05 10:22:42;;;;;;;30.30;12.13;;;;;;;25.62;100.00;101708.50;5146411;27;20434;-76
2021/06/05 10:25:27;;;;;;;32.87;14.40;;;;;;;25.78;100.00;101709.44;5130193;28;20381;-74
2021/06/05 10:27:53;;;;;;;33.83;16.83;;;;;;;25.59;100.00;101706.13;5134947;27;20427;-66
2021/06/05 10:30:29;;;;;;;35.80;22.10;;;;;;;25.55;100.00;101702.16;5145236;27;20401;-67
2021/06/05 10:32:59;;;;;;;38.77;23.33;;;;;;;25.37;100.00;101694.31;5146266;27;20538;-72
2021/06/05 10:35:36;;;;;;;40.00;28.63;;;;;;;25.87;100.00;101682.28;5130838;27;20911;-63
2021/06/05 10:38:08;;;;;;;34.97;20.17;;;;;;;26.43;100.00;101681.97;5132608;27;20499;-73
2021/06/05 10:40:34;;;;;;;32.20;17.63;;;;;;;26.96;100.00;101677.34;5134900;27;20754;-65
2021/06/05 10:43:00;;;;;;;30.20;15.13;;;;;;;27.27;100.00;101686.09;5146741;27;20421;-67
2021/06/05 10:45:37;;;;;;;31.27;11.63;;;;;;;27.17;100.00;101676.63;5137006;27;20408;-67
2021/06/05 10:48:23;;;;;;;33.40;15.90;;;;;;;26.88;100.00;101682.84;5133836;27;20454;-71
2021/06/05 10:50:59;;;;;;;33.03;16.37;;;;;;;26.47;100.00;101684.13;5134232;27;20456;-75
2021/06/05 10:53:53;;;;;;;32.30;12.30;;;;;;;26.71;100.00;101674.94;5133763;27;20452;-80
2021/06/05 10:56:34;;;;;;;30.83;15.53;;;;;;;26.90;100.00;101675.41;5139445;27;20406;-73
2021/06/05 10:59:03;;;;;;;29.00;13.80;;;;;;;27.02;100.00;101671.22;5142712;27;20407;-71
2021/06/05 11:01:31;;;;;;;26.23;10.30;;;;;;;27.24;100.00;101664.06;5139861;27;20400;-85
2021/06/05 11:04:29;;;;;;;28.33;12.77;;;;;;;26.77;100.00;101670.69;5143901;27;20925;-76